Historical Weather Data

Soule Park Golf Course
1033 East Ojai Ave
Ojai, CA 93023
Date ET
(Inches)
Rain
(Inches)
Temp °F
Humidity
Avg
Wind MPH
Avg
Solar Wm2
Avg
High Ave Low
11/1/17 0.06 0.00 70.3 61.1 53.2 73 1.4 80
11/2/17 0.04 0.00 68.0 59.4 54.4 73 1.3 56
11/3/17 0.10 0.00 70.2 59.6 51.9 70 2.0 155
11/4/17 0.09 0.00 72.5 58.1 45.5 75 2.2 163
11/5/17 0.08 0.00 71.4 59.6 50.1 79 1.8 143
11/6/17 0.07 0.00 69.6 58.3 49.8 70 2.1 116
11/7/17 0.10 0.00 76.0 59.3 45.7 66 2.3 155
11/8/17 0.09 0.00 75.5 59.2 45.4 75 2.3 151
11/9/17 0.08 0.00 70.4 58.0 45.8 83 2.4 153
11/10/17 0.07 0.00 70.6 56.4 44.0 82 2.0 145
11/11/17 0.08 0.00 73.1 56.1 42.1 76 1.8 141
11/12/17 0.05 0.00 74.1 55.7 44.4 74 1.5 89
11/13/17 0.07 0.00 76.9 55.8 40.9 65 1.1 114
11/14/17 0.10 0.00 80.9 59.5 44.3 59 2.3 133
11/15/17 0.08 0.00 82.4 61.0 45.0 49 2.0 109
11/16/17 0.06 0.03 75.1 62.1 53.4 73 1.5 74
11/17/17 0.07 0.00 74.1 60.5 49.5 81 1.7 107
11/18/17 0.07 0.00 81.4 56.2 40.9 63 1.8 115
11/19/17 0.09 0.00 78.1 54.5 37.5 51 2.0 126
11/20/17 0.08 0.00 79.9 58.4 40.7 48 2.1 107